aviador You're here:

CYZV Decoded Metar

SEPT-ILES in QC, CANADA
Report Time2017-07-26 06:00:00
UTC Time2017-07-26 06:36:08
Flight Rules vfr VFR
Wind090° at 04 kt
W.Decomp.*RWY 13: 3.8 kt HW 1.4 kt LCW
RWY 09: 3.8 kt HW 1.4 kt RCW
W.Rank090° ranks 2
Current wind is below 090° avg. (11.2)
Visibility9999 m
Phenomena:N/A
Clouds:Few 100 Hf
Broken 230 Hf
Expected CloudBase > 800 ft AGL from Temp-Dew spread
Ceiling23,000 ft
Temp07°C (ISA -8)
Dew Point05°C (87% RH)
AAT4.4°C
QNH1019 hPa
Density Alt-823 ft
Elevation180 ft
Report Wrong Elevation
Raw Report
CYZV 260600Z 09004KT 15SM FEW100 BKN230 07/05 A3008 RMK AC2CI4
SLP191=

Extra information for CYZV:More info

Metar Taf Metar & Taf Last 4 Metars F.Rules Stats Wind Profile Meteogram Temp Stats Airport Information Weather charts Add Link Nearby VenuesMetar ALERT Operation Metar Decoded Social comments